sensor_id;sensor_type;location;lat;lon;timestamp;temperature;humidity
4584;DHT22;2304;47.606;12.186;2024-03-29T00:03:50;5.80;77.10
4584;DHT22;2304;47.606;12.186;2024-03-29T00:08:52;5.70;77.70
4584;DHT22;2304;47.606;12.186;2024-03-29T00:13:52;5.60;78.10
4584;DHT22;2304;47.606;12.186;2024-03-29T00:18:55;5.50;79.20
4584;DHT22;2304;47.606;12.186;2024-03-29T00:23:56;5.40;79.70
4584;DHT22;2304;47.606;12.186;2024-03-29T00:28:57;5.40;80.10
4584;DHT22;2304;47.606;12.186;2024-03-29T00:33:59;5.50;80.70
4584;DHT22;2304;47.606;12.186;2024-03-29T00:39:00;5.30;81.20
4584;DHT22;2304;47.606;12.186;2024-03-29T00:44:01;5.30;81.20
4584;DHT22;2304;47.606;12.186;2024-03-29T00:49:03;5.20;80.70
4584;DHT22;2304;47.606;12.186;2024-03-29T00:54:04;5.20;81.30
4584;DHT22;2304;47.606;12.186;2024-03-29T00:59:05;5.20;81.30
4584;DHT22;2304;47.606;12.186;2024-03-29T01:04:07;5.20;81.40
4584;DHT22;2304;47.606;12.186;2024-03-29T01:09:09;5.30;81.00
4584;DHT22;2304;47.606;12.186;2024-03-29T01:14:10;5.30;81.30
4584;DHT22;2304;47.606;12.186;2024-03-29T01:19:12;5.30;81.60
4584;DHT22;2304;47.606;12.186;2024-03-29T01:24:13;5.30;81.10
4584;DHT22;2304;47.606;12.186;2024-03-29T01:29:14;5.30;80.40
4584;DHT22;2304;47.606;12.186;2024-03-29T01:34:17;5.60;81.50
4584;DHT22;2304;47.606;12.186;2024-03-29T01:39:18;5.30;80.90
4584;DHT22;2304;47.606;12.186;2024-03-29T01:44:19;5.40;79.90
4584;DHT22;2304;47.606;12.186;2024-03-29T01:49:22;5.30;80.80
4584;DHT22;2304;47.606;12.186;2024-03-29T01:54:24;5.20;81.40
4584;DHT22;2304;47.606;12.186;2024-03-29T01:59:26;5.20;82.20
4584;DHT22;2304;47.606;12.186;2024-03-29T02:04:31;5.20;82.70
4584;DHT22;2304;47.606;12.186;2024-03-29T02:09:32;4.90;84.30
4584;DHT22;2304;47.606;12.186;2024-03-29T02:14:34;4.90;85.20
4584;DHT22;2304;47.606;12.186;2024-03-29T02:19:38;4.90;85.10
4584;DHT22;2304;47.606;12.186;2024-03-29T02:24:41;4.90;85.40
4584;DHT22;2304;47.606;12.186;2024-03-29T02:29:43;4.90;85.20
4584;DHT22;2304;47.606;12.186;2024-03-29T02:34:45;4.90;85.90
4584;DHT22;2304;47.606;12.186;2024-03-29T02:39:48;5.00;85.80
4584;DHT22;2304;47.606;12.186;2024-03-29T02:44:50;5.10;85.40
4584;DHT22;2304;47.606;12.186;2024-03-29T02:49:52;5.10;83.20
4584;DHT22;2304;47.606;12.186;2024-03-29T02:54:55;5.00;83.40
4584;DHT22;2304;47.606;12.186;2024-03-29T02:59:57;5.00;84.50
4584;DHT22;2304;47.606;12.186;2024-03-29T03:04:59;4.80;85.70
4584;DHT22;2304;47.606;12.186;2024-03-29T03:10:02;4.70;87.10
4584;DHT22;2304;47.606;12.186;2024-03-29T03:15:22;4.60;87.50
4584;DHT22;2304;47.606;12.186;2024-03-29T03:20:24;4.60;88.40
4584;DHT22;2304;47.606;12.186;2024-03-29T03:25:30;4.50;89.00
4584;DHT22;2304;47.606;12.186;2024-03-29T03:30:31;4.50;90.40
4584;DHT22;2304;47.606;12.186;2024-03-29T03:35:33;4.50;90.80
4584;DHT22;2304;47.606;12.186;2024-03-29T03:40:37;4.90;91.30
4584;DHT22;2304;47.606;12.186;2024-03-29T03:45:40;4.50;91.00
4584;DHT22;2304;47.606;12.186;2024-03-29T03:50:42;4.60;90.50
4584;DHT22;2304;47.606;12.186;2024-03-29T03:55:45;4.70;89.10
4584;DHT22;2304;47.606;12.186;2024-03-29T04:00:47;4.70;88.20
4584;DHT22;2304;47.606;12.186;2024-03-29T04:05:49;4.70;87.10
4584;DHT22;2304;47.606;12.186;2024-03-29T04:10:52;4.70;87.30
4584;DHT22;2304;47.606;12.186;2024-03-29T04:16:01;4.70;86.90
4584;DHT22;2304;47.606;12.186;2024-03-29T04:21:04;4.60;87.40
4584;DHT22;2304;47.606;12.186;2024-03-29T04:26:07;4.60;88.40
4584;DHT22;2304;47.606;12.186;2024-03-29T04:31:09;4.50;88.50
4584;DHT22;2304;47.606;12.186;2024-03-29T04:36:11;4.50;88.70
4584;DHT22;2304;47.606;12.186;2024-03-29T04:41:15;4.60;87.90
4584;DHT22;2304;47.606;12.186;2024-03-29T04:46:17;4.60;85.70
4584;DHT22;2304;47.606;12.186;2024-03-29T04:51:18;4.60;85.30
4584;DHT22;2304;47.606;12.186;2024-03-29T04:56:22;4.60;84.50
4584;DHT22;2304;47.606;12.186;2024-03-29T05:01:24;4.60;83.40
4584;DHT22;2304;47.606;12.186;2024-03-29T05:06:25;4.40;83.90
4584;DHT22;2304;47.606;12.186;2024-03-29T05:11:29;4.30;85.10
4584;DHT22;2304;47.606;12.186;2024-03-29T05:16:30;4.30;86.30
4584;DHT22;2304;47.606;12.186;2024-03-29T05:21:32;4.40;86.40
4584;DHT22;2304;47.606;12.186;2024-03-29T05:26:36;4.40;86.10
4584;DHT22;2304;47.606;12.186;2024-03-29T05:31:37;4.40;86.30
4584;DHT22;2304;47.606;12.186;2024-03-29T05:36:39;4.30;87.00
4584;DHT22;2304;47.606;12.186;2024-03-29T05:41:43;4.50;87.30
4584;DHT22;2304;47.606;12.186;2024-03-29T05:46:44;4.60;87.70
4584;DHT22;2304;47.606;12.186;2024-03-29T05:51:46;4.40;87.70
4584;DHT22;2304;47.606;12.186;2024-03-29T05:56:49;4.50;88.10
4584;DHT22;2304;47.606;12.186;2024-03-29T06:01:51;4.60;87.10
4584;DHT22;2304;47.606;12.186;2024-03-29T06:06:53;4.70;85.70
4584;DHT22;2304;47.606;12.186;2024-03-29T06:11:57;4.80;85.00
4584;DHT22;2304;47.606;12.186;2024-03-29T06:16:59;4.80;83.90
4584;DHT22;2304;47.606;12.186;2024-03-29T06:22:18;4.70;83.50
4584;DHT22;2304;47.606;12.186;2024-03-29T06:27:21;4.90;84.40
4584;DHT22;2304;47.606;12.186;2024-03-29T06:32:23;4.80;85.00
4584;DHT22;2304;47.606;12.186;2024-03-29T06:37:25;4.80;85.50
4584;DHT22;2304;47.606;12.186;2024-03-29T06:42:31;4.80;85.50
4584;DHT22;2304;47.606;12.186;2024-03-29T06:47:32;4.90;85.30
4584;DHT22;2304;47.606;12.186;2024-03-29T06:52:34;5.40;83.30
4584;DHT22;2304;47.606;12.186;2024-03-29T06:57:38;5.50;81.50
4584;DHT22;2304;47.606;12.186;2024-03-29T07:02:39;5.70;80.60
4584;DHT22;2304;47.606;12.186;2024-03-29T07:07:41;6.20;79.90
4584;DHT22;2304;47.606;12.186;2024-03-29T07:12:44;6.40;78.60
4584;DHT22;2304;47.606;12.186;2024-03-29T07:17:46;6.50;76.90
4584;DHT22;2304;47.606;12.186;2024-03-29T07:22:50;6.80;75.10
4584;DHT22;2304;47.606;12.186;2024-03-29T07:27:54;7.00;74.60
4584;DHT22;2304;47.606;12.186;2024-03-29T07:32:56;7.30;73.20
4584;DHT22;2304;47.606;12.186;2024-03-29T07:37:58;7.30;72.00
4584;DHT22;2304;47.606;12.186;2024-03-29T07:43:01;7.60;73.00
4584;DHT22;2304;47.606;12.186;2024-03-29T07:48:04;7.70;72.00
4584;DHT22;2304;47.606;12.186;2024-03-29T07:53:06;7.70;71.00
4584;DHT22;2304;47.606;12.186;2024-03-29T07:58:10;7.90;70.10
4584;DHT22;2304;47.606;12.186;2024-03-29T08:03:12;8.20;70.00
4584;DHT22;2304;47.606;12.186;2024-03-29T08:08:14;8.00;69.90
4584;DHT22;2304;47.606;12.186;2024-03-29T08:13:17;7.80;70.40
4584;DHT22;2304;47.606;12.186;2024-03-29T08:18:21;8.00;70.10
4584;DHT22;2304;47.606;12.186;2024-03-29T08:23:23;8.30;71.10
4584;DHT22;2304;47.606;12.186;2024-03-29T08:28:26;8.30;70.50
4584;DHT22;2304;47.606;12.186;2024-03-29T08:33:28;8.60;70.00
4584;DHT22;2304;47.606;12.186;2024-03-29T08:38:31;8.60;68.50
4584;DHT22;2304;47.606;12.186;2024-03-29T08:43:34;8.70;69.40
4584;DHT22;2304;47.606;12.186;2024-03-29T08:48:36;8.80;68.30
4584;DHT22;2304;47.606;12.186;2024-03-29T08:53:40;9.00;68.30
4584;DHT22;2304;47.606;12.186;2024-03-29T08:58:43;9.10;67.80
4584;DHT22;2304;47.606;12.186;2024-03-29T09:03:45;9.20;66.70
4584;DHT22;2304;47.606;12.186;2024-03-29T09:08:47;9.40;65.00
4584;DHT22;2304;47.606;12.186;2024-03-29T09:13:50;9.60;63.40
4584;DHT22;2304;47.606;12.186;2024-03-29T09:18:54;9.80;63.80
4584;DHT22;2304;47.606;12.186;2024-03-29T09:23:56;10.10;66.10
4584;DHT22;2304;47.606;12.186;2024-03-29T09:29:00;10.30;64.40
4584;DHT22;2304;47.606;12.186;2024-03-29T09:34:01;10.60;62.30
4584;DHT22;2304;47.606;12.186;2024-03-29T09:39:04;10.60;61.60
4584;DHT22;2304;47.606;12.186;2024-03-29T09:44:08;10.80;62.10
4584;DHT22;2304;47.606;12.186;2024-03-29T09:49:10;10.80;60.90
4584;DHT22;2304;47.606;12.186;2024-03-29T09:54:12;11.00;61.40
4584;DHT22;2304;47.606;12.186;2024-03-29T09:59:18;11.00;61.80
4584;DHT22;2304;47.606;12.186;2024-03-29T10:04:21;11.10;61.50
4584;DHT22;2304;47.606;12.186;2024-03-29T10:09:24;11.40;60.60
4584;DHT22;2304;47.606;12.186;2024-03-29T10:14:31;11.80;61.20
4584;DHT22;2304;47.606;12.186;2024-03-29T10:19:33;12.30;58.90
4584;DHT22;2304;47.606;12.186;2024-03-29T10:24:36;12.40;59.00
4584;DHT22;2304;47.606;12.186;2024-03-29T10:29:41;12.40;58.80
4584;DHT22;2304;47.606;12.186;2024-03-29T10:34:43;13.10;58.90
4584;DHT22;2304;47.606;12.186;2024-03-29T10:39:45;13.70;58.00
4584;DHT22;2304;47.606;12.186;2024-03-29T10:44:49;13.90;54.50
4584;DHT22;2304;47.606;12.186;2024-03-29T10:49:51;14.20;54.70
4584;DHT22;2304;47.606;12.186;2024-03-29T10:54:54;14.60;52.90
4584;DHT22;2304;47.606;12.186;2024-03-29T11:00:03;15.10;52.30
4584;DHT22;2304;47.606;12.186;2024-03-29T11:05:09;15.40;50.80
4584;DHT22;2304;47.606;12.186;2024-03-29T11:10:13;15.60;49.00
4584;DHT22;2304;47.606;12.186;2024-03-29T11:15:28;15.90;49.50
4584;DHT22;2304;47.606;12.186;2024-03-29T11:20:31;15.70;49.90
4584;DHT22;2304;47.606;12.186;2024-03-29T11:25:41;15.30;50.80
4584;DHT22;2304;47.606;12.186;2024-03-29T11:30:46;15.10;52.60
4584;DHT22;2304;47.606;12.186;2024-03-29T11:35:47;15.70;53.20
4584;DHT22;2304;47.606;12.186;2024-03-29T11:41:04;16.10;51.90
4584;DHT22;2304;47.606;12.186;2024-03-29T11:46:09;16.60;50.80
4584;DHT22;2304;47.606;12.186;2024-03-29T11:51:13;16.80;49.10
4584;DHT22;2304;47.606;12.186;2024-03-29T11:56:15;17.20;49.20
4584;DHT22;2304;47.606;12.186;2024-03-29T12:01:19;17.40;47.60
4584;DHT22;2304;47.606;12.186;2024-03-29T12:06:22;17.80;49.40
4584;DHT22;2304;47.606;12.186;2024-03-29T12:11:25;18.00;48.30
4584;DHT22;2304;47.606;12.186;2024-03-29T12:16:30;18.30;48.10
4584;DHT22;2304;47.606;12.186;2024-03-29T12:21:32;18.50;46.70
4584;DHT22;2304;47.606;12.186;2024-03-29T12:26:34;18.70;46.90
4584;DHT22;2304;47.606;12.186;2024-03-29T12:31:37;18.70;45.70
4584;DHT22;2304;47.606;12.186;2024-03-29T12:36:39;18.80;45.40
4584;DHT22;2304;47.606;12.186;2024-03-29T12:41:41;19.10;44.40
4584;DHT22;2304;47.606;12.186;2024-03-29T12:46:46;19.50;41.60
4584;DHT22;2304;47.606;12.186;2024-03-29T12:51:47;19.50;41.70
4584;DHT22;2304;47.606;12.186;2024-03-29T12:56:49;19.50;42.20
4584;DHT22;2304;47.606;12.186;2024-03-29T13:01:53;19.70;41.40
4584;DHT22;2304;47.606;12.186;2024-03-29T13:06:57;20.00;43.10
4584;DHT22;2304;47.606;12.186;2024-03-29T13:11:59;20.10;42.10
4584;DHT22;2304;47.606;12.186;2024-03-29T13:17:02;20.30;40.80
4584;DHT22;2304;47.606;12.186;2024-03-29T13:22:04;20.40;40.10
4584;DHT22;2304;47.606;12.186;2024-03-29T13:27:07;20.40;37.30
4584;DHT22;2304;47.606;12.186;2024-03-29T13:32:10;20.50;35.40
4584;DHT22;2304;47.606;12.186;2024-03-29T13:37:12;20.50;35.90
4584;DHT22;2304;47.606;12.186;2024-03-29T13:42:14;20.50;34.90
4584;DHT22;2304;47.606;12.186;2024-03-29T13:47:17;20.30;34.90
4584;DHT22;2304;47.606;12.186;2024-03-29T13:52:19;20.50;32.90
4584;DHT22;2304;47.606;12.186;2024-03-29T13:57:21;20.70;32.00
4584;DHT22;2304;47.606;12.186;2024-03-29T14:02:25;20.90;30.70
4584;DHT22;2304;47.606;12.186;2024-03-29T14:07:28;21.00;30.70
4584;DHT22;2304;47.606;12.186;2024-03-29T14:12:30;20.90;30.70
4584;DHT22;2304;47.606;12.186;2024-03-29T14:17:33;20.80;30.20
4584;DHT22;2304;47.606;12.186;2024-03-29T14:22:35;20.70;30.70
4584;DHT22;2304;47.606;12.186;2024-03-29T14:27:38;20.70;30.10
4584;DHT22;2304;47.606;12.186;2024-03-29T14:32:56;20.60;31.30
4584;DHT22;2304;47.606;12.186;2024-03-29T14:37:58;20.50;31.00
4584;DHT22;2304;47.606;12.186;2024-03-29T14:43:00;20.30;32.00
4584;DHT22;2304;47.606;12.186;2024-03-29T14:48:04;20.10;31.30
4584;DHT22;2304;47.606;12.186;2024-03-29T14:53:06;20.00;32.60
4584;DHT22;2304;47.606;12.186;2024-03-29T14:58:08;19.90;32.90
4584;DHT22;2304;47.606;12.186;2024-03-29T15:03:11;19.90;32.80
4584;DHT22;2304;47.606;12.186;2024-03-29T15:08:13;19.90;31.30
4584;DHT22;2304;47.606;12.186;2024-03-29T15:13:18;20.10;29.70
4584;DHT22;2304;47.606;12.186;2024-03-29T15:18:21;20.10;29.90
4584;DHT22;2304;47.606;12.186;2024-03-29T15:23:23;20.10;30.60
4584;DHT22;2304;47.606;12.186;2024-03-29T15:28:27;20.10;30.60
4584;DHT22;2304;47.606;12.186;2024-03-29T15:33:48;20.00;31.90
4584;DHT22;2304;47.606;12.186;2024-03-29T15:38:50;19.90;32.20
4584;DHT22;2304;47.606;12.186;2024-03-29T15:43:54;19.80;32.00
4584;DHT22;2304;47.606;12.186;2024-03-29T15:49:00;19.70;32.60
4584;DHT22;2304;47.606;12.186;2024-03-29T15:54:01;19.60;32.40
4584;DHT22;2304;47.606;12.186;2024-03-29T15:59:06;19.50;32.30
4584;DHT22;2304;47.606;12.186;2024-03-29T16:04:11;19.50;32.20
4584;DHT22;2304;47.606;12.186;2024-03-29T16:09:13;19.50;32.60
4584;DHT22;2304;47.606;12.186;2024-03-29T16:14:15;19.30;33.20
4584;DHT22;2304;47.606;12.186;2024-03-29T16:19:18;19.10;34.70
4584;DHT22;2304;47.606;12.186;2024-03-29T16:24:20;18.90;34.20
4584;DHT22;2304;47.606;12.186;2024-03-29T16:29:22;18.90;34.30
4584;DHT22;2304;47.606;12.186;2024-03-29T16:34:25;18.80;34.60
4584;DHT22;2304;47.606;12.186;2024-03-29T16:39:27;18.70;34.60
4584;DHT22;2304;47.606;12.186;2024-03-29T16:44:29;18.70;34.40
4584;DHT22;2304;47.606;12.186;2024-03-29T16:49:32;18.70;33.40
4584;DHT22;2304;47.606;12.186;2024-03-29T16:54:34;18.70;33.40
4584;DHT22;2304;47.606;12.186;2024-03-29T16:59:36;18.70;33.80
4584;DHT22;2304;47.606;12.186;2024-03-29T17:04:41;18.60;33.90
4584;DHT22;2304;47.606;12.186;2024-03-29T17:09:46;18.50;34.10
4584;DHT22;2304;47.606;12.186;2024-03-29T17:14:48;18.40;34.30
4584;DHT22;2304;47.606;12.186;2024-03-29T17:19:51;18.40;34.20
4584;DHT22;2304;47.606;12.186;2024-03-29T17:24:53;18.30;34.60
4584;DHT22;2304;47.606;12.186;2024-03-29T17:29:56;18.20;34.80
4584;DHT22;2304;47.606;12.186;2024-03-29T17:35:00;18.10;34.20
4584;DHT22;2304;47.606;12.186;2024-03-29T17:40:03;18.10;34.40
4584;DHT22;2304;47.606;12.186;2024-03-29T17:45:05;18.00;34.90
4584;DHT22;2304;47.606;12.186;2024-03-29T17:50:09;18.10;35.30
4584;DHT22;2304;47.606;12.186;2024-03-29T17:55:13;17.80;35.60
4584;DHT22;2304;47.606;12.186;2024-03-29T18:00:15;17.70;35.60
4584;DHT22;2304;47.606;12.186;2024-03-29T18:05:19;17.60;35.80
4584;DHT22;2304;47.606;12.186;2024-03-29T18:10:21;17.70;35.60
4584;DHT22;2304;47.606;12.186;2024-03-29T18:15:23;17.70;35.80
4584;DHT22;2304;47.606;12.186;2024-03-29T18:20:26;17.60;36.40
4584;DHT22;2304;47.606;12.186;2024-03-29T18:25:28;17.50;36.00
4584;DHT22;2304;47.606;12.186;2024-03-29T18:30:31;17.50;35.90
4584;DHT22;2304;47.606;12.186;2024-03-29T18:35:34;17.50;36.10
4584;DHT22;2304;47.606;12.186;2024-03-29T18:40:37;17.40;36.60
4584;DHT22;2304;47.606;12.186;2024-03-29T18:45:39;17.50;36.40
4584;DHT22;2304;47.606;12.186;2024-03-29T18:50:42;17.40;36.40
4584;DHT22;2304;47.606;12.186;2024-03-29T18:55:54;17.50;35.80
4584;DHT22;2304;47.606;12.186;2024-03-29T19:00:56;17.50;35.50
4584;DHT22;2304;47.606;12.186;2024-03-29T19:05:59;17.60;34.60
4584;DHT22;2304;47.606;12.186;2024-03-29T19:11:01;17.70;33.80
4584;DHT22;2304;47.606;12.186;2024-03-29T19:16:03;17.70;34.00
4584;DHT22;2304;47.606;12.186;2024-03-29T19:21:07;17.60;34.10
4584;DHT22;2304;47.606;12.186;2024-03-29T19:26:09;17.60;34.20
4584;DHT22;2304;47.606;12.186;2024-03-29T19:31:11;17.60;34.20
4584;DHT22;2304;47.606;12.186;2024-03-29T19:36:14;17.60;33.70
4584;DHT22;2304;47.606;12.186;2024-03-29T19:41:16;17.60;33.80
4584;DHT22;2304;47.606;12.186;2024-03-29T19:46:17;17.60;33.00
4584;DHT22;2304;47.606;12.186;2024-03-29T19:51:21;17.70;33.20
4584;DHT22;2304;47.606;12.186;2024-03-29T19:56:22;17.60;32.80
4584;DHT22;2304;47.606;12.186;2024-03-29T20:01:24;17.90;30.90
4584;DHT22;2304;47.606;12.186;2024-03-29T20:06:27;18.10;29.60
4584;DHT22;2304;47.606;12.186;2024-03-29T20:11:29;18.30;28.50
4584;DHT22;2304;47.606;12.186;2024-03-29T20:16:31;18.70;27.60
4584;DHT22;2304;47.606;12.186;2024-03-29T20:21:35;18.70;27.00
4584;DHT22;2304;47.606;12.186;2024-03-29T20:26:36;18.80;27.00
4584;DHT22;2304;47.606;12.186;2024-03-29T20:31:38;18.90;27.00
4584;DHT22;2304;47.606;12.186;2024-03-29T20:36:43;19.00;26.20
4584;DHT22;2304;47.606;12.186;2024-03-29T20:41:45;19.10;25.90
4584;DHT22;2304;47.606;12.186;2024-03-29T20:46:47;19.10;26.20
4584;DHT22;2304;47.606;12.186;2024-03-29T20:51:50;19.00;26.40
4584;DHT22;2304;47.606;12.186;2024-03-29T20:56:52;19.10;26.30
4584;DHT22;2304;47.606;12.186;2024-03-29T21:01:54;18.80;27.70
4584;DHT22;2304;47.606;12.186;2024-03-29T21:07:14;18.80;27.80
4584;DHT22;2304;47.606;12.186;2024-03-29T21:12:16;18.60;28.80
4584;DHT22;2304;47.606;12.186;2024-03-29T21:17:18;18.50;29.50
4584;DHT22;2304;47.606;12.186;2024-03-29T21:22:22;18.40;29.60
4584;DHT22;2304;47.606;12.186;2024-03-29T21:27:24;18.50;28.90
4584;DHT22;2304;47.606;12.186;2024-03-29T21:32:26;18.40;28.70
4584;DHT22;2304;47.606;12.186;2024-03-29T21:37:30;18.50;29.20
4584;DHT22;2304;47.606;12.186;2024-03-29T21:42:32;18.30;30.20
4584;DHT22;2304;47.606;12.186;2024-03-29T21:47:34;18.20;31.10
4584;DHT22;2304;47.606;12.186;2024-03-29T21:52:38;18.10;31.30
4584;DHT22;2304;47.606;12.186;2024-03-29T21:57:40;18.20;30.60
4584;DHT22;2304;47.606;12.186;2024-03-29T22:02:42;18.10;31.00
4584;DHT22;2304;47.606;12.186;2024-03-29T22:07:45;18.10;31.40
4584;DHT22;2304;47.606;12.186;2024-03-29T22:12:47;18.10;31.20
4584;DHT22;2304;47.606;12.186;2024-03-29T22:17:49;18.00;31.30
4584;DHT22;2304;47.606;12.186;2024-03-29T22:22:53;18.10;31.30
4584;DHT22;2304;47.606;12.186;2024-03-29T22:27:56;18.10;31.40
4584;DHT22;2304;47.606;12.186;2024-03-29T22:32:58;18.00;31.60
4584;DHT22;2304;47.606;12.186;2024-03-29T22:38:01;18.00;31.90
4584;DHT22;2304;47.606;12.186;2024-03-29T22:43:03;18.00;31.50
4584;DHT22;2304;47.606;12.186;2024-03-29T22:48:07;17.90;32.10
4584;DHT22;2304;47.606;12.186;2024-03-29T22:53:10;18.00;31.70
4584;DHT22;2304;47.606;12.186;2024-03-29T22:58:12;18.00;31.20
4584;DHT22;2304;47.606;12.186;2024-03-29T23:03:14;18.00;31.40
4584;DHT22;2304;47.606;12.186;2024-03-29T23:08:17;18.00;31.40
4584;DHT22;2304;47.606;12.186;2024-03-29T23:13:19;18.00;30.90
4584;DHT22;2304;47.606;12.186;2024-03-29T23:18:21;18.00;30.10
4584;DHT22;2304;47.606;12.186;2024-03-29T23:23:24;18.10;29.20
4584;DHT22;2304;47.606;12.186;2024-03-29T23:28:26;18.30;28.30
4584;DHT22;2304;47.606;12.186;2024-03-29T23:33:28;18.20;28.80
4584;DHT22;2304;47.606;12.186;2024-03-29T23:38:31;18.30;28.00
4584;DHT22;2304;47.606;12.186;2024-03-29T23:43:34;18.20;29.00
4584;DHT22;2304;47.606;12.186;2024-03-29T23:48:37;18.10;29.40
4584;DHT22;2304;47.606;12.186;2024-03-29T23:53:40;18.10;29.50
4584;DHT22;2304;47.606;12.186;2024-03-29T23:58:42;18.10;29.20
